Time;durP1;ratioP1;P1;durP2;ratioP2;P2;SDS_P1;SDS_P2;PMS_P1;PMS_P2;Temp;Humidity;BMP_temperature;BMP_pressure;BME280_temperature;BME280_humidity;BME280_pressure;Samples;Min_cycle;Max_cycle;Signal;HPM_P1;HPM_P2
2023/06/30 00:01:27;;;;;;;9.73;7.88;;;;;;;;;;5054131;28;20575;-60
2023/06/30 00:03:54;;;;;;;6.65;5.00;;;;;;;;;;5053974;28;20140;-60
2023/06/30 00:06:20;;;;;;;5.53;3.10;;;;;;;;;;5053970;28;20049;-60
2023/06/30 00:08:48;;;;;;;3.65;2.30;;;;;;;;;;5054109;28;20057;-60
2023/06/30 00:11:15;;;;;;;3.35;2.00;;;;;;;;;;5054242;28;20059;-60
2023/06/30 00:13:41;;;;;;;2.80;1.77;;;;;;;;;;5052793;28;20060;-60
2023/06/30 00:16:08;;;;;;;4.65;2.25;;;;;;;;;;5053803;28;20045;-60
2023/06/30 00:18:34;;;;;;;5.05;2.60;;;;;;;;;;5053631;28;20060;-60
2023/06/30 00:21:02;;;;;;;4.05;1.90;;;;;;;;;;5053923;28;20095;-60
2023/06/30 00:23:28;;;;;;;3.88;2.25;;;;;;;;;;5054080;28;20048;-60
2023/06/30 00:25:55;;;;;;;4.55;1.90;;;;;;;;;;5053554;28;20045;-60
2023/06/30 00:28:21;;;;;;;3.03;2.13;;;;;;;;;;5053546;28;20092;-60
2023/06/30 00:30:48;;;;;;;3.88;2.15;;;;;;;;;;5053473;28;20053;-60
2023/06/30 00:33:14;;;;;;;5.05;2.20;;;;;;;;;;5053422;28;20045;-61
2023/06/30 00:35:41;;;;;;;4.53;2.13;;;;;;;;;;5043313;28;20482;-60
2023/06/30 00:38:07;;;;;;;3.40;2.40;;;;;;;;;;5043265;28;20135;-60
2023/06/30 00:40:34;;;;;;;8.52;2.33;;;;;;;;;;5045846;28;20048;-60
2023/06/30 00:43:00;;;;;;;5.43;2.38;;;;;;;;;;5052071;28;20045;-60
2023/06/30 00:45:27;;;;;;;4.50;2.75;;;;;;;;;;5053059;28;20531;-60
2023/06/30 00:47:53;;;;;;;4.63;2.60;;;;;;;;;;5053179;28;20098;-60
2023/06/30 00:50:20;;;;;;;6.25;2.47;;;;;;;;;;5053347;28;20060;-60
2023/06/30 00:52:48;;;;;;;5.70;2.70;;;;;;;;;;5053488;28;20099;-60
2023/06/30 00:55:16;;;;;;;4.35;2.25;;;;;;;;;;5053323;28;20056;-60
2023/06/30 00:57:42;;;;;;;4.88;2.38;;;;;;;;;;5053334;28;20053;-60
2023/06/30 01:00:11;;;;;;;3.72;2.00;;;;;;;;;;5052533;28;20045;-60
2023/06/30 01:02:48;;;;;;;4.70;2.50;;;;;;;;;;5053366;28;20052;-61
2023/06/30 01:05:25;;;;;;;4.78;2.55;;;;;;;;;;5053182;28;20072;-61
2023/06/30 01:07:57;;;;;;;5.10;2.60;;;;;;;;;;5052845;28;20041;-60
2023/06/30 01:10:25;;;;;;;4.20;2.20;;;;;;;;;;5052778;28;20424;-60
2023/06/30 01:12:52;;;;;;;4.03;2.58;;;;;;;;;;5053127;28;20094;-60
2023/06/30 01:15:18;;;;;;;3.53;2.60;;;;;;;;;;5053001;28;20057;-61
2023/06/30 01:17:47;;;;;;;4.40;2.35;;;;;;;;;;5052741;28;20053;-60
2023/06/30 01:20:16;;;;;;;4.53;2.65;;;;;;;;;;5052810;28;20053;-60
2023/06/30 01:22:58;;;;;;;3.08;2.53;;;;;;;;;;5052573;28;20571;-60
2023/06/30 01:25:26;;;;;;;2.78;2.47;;;;;;;;;;5052492;28;20056;-60
2023/06/30 01:27:54;;;;;;;4.95;2.40;;;;;;;;;;5052702;28;20148;-60
2023/06/30 01:30:21;;;;;;;5.50;2.40;;;;;;;;;;5052542;28;20380;-60
2023/06/30 01:32:54;;;;;;;4.32;2.30;;;;;;;;;;5052641;28;20160;-60
2023/06/30 01:35:22;;;;;;;4.45;2.20;;;;;;;;;;5052430;28;20390;-60
2023/06/30 01:37:49;;;;;;;4.30;2.75;;;;;;;;;;5052543;28;20053;-60
2023/06/30 01:40:15;;;;;;;3.42;2.30;;;;;;;;;;5052355;28;20048;-61
2023/06/30 01:42:42;;;;;;;4.95;2.38;;;;;;;;;;5052389;28;20041;-60
2023/06/30 01:45:09;;;;;;;4.47;2.10;;;;;;;;;;5052078;28;20083;-61
2023/06/30 01:47:36;;;;;;;3.97;2.05;;;;;;;;;;5052459;28;20045;-60
2023/06/30 01:50:03;;;;;;;3.10;2.28;;;;;;;;;;5052014;28;20473;-61
2023/06/30 01:52:29;;;;;;;3.10;2.10;;;;;;;;;;5052020;28;20045;-60
2023/06/30 01:54:56;;;;;;;6.38;2.25;;;;;;;;;;5052216;28;20057;-60
2023/06/30 01:57:22;;;;;;;4.28;2.05;;;;;;;;;;5052154;28;20114;-60
2023/06/30 01:59:49;;;;;;;5.22;2.35;;;;;;;;;;5052204;28;20103;-60
2023/06/30 02:02:15;;;;;;;4.63;2.40;;;;;;;;;;5051834;28;20048;-60
2023/06/30 02:04:41;;;;;;;4.35;2.40;;;;;;;;;;5052412;28;20214;-60
2023/06/30 02:07:08;;;;;;;4.32;2.05;;;;;;;;;;5051645;28;20041;-60
2023/06/30 02:09:34;;;;;;;2.53;2.00;;;;;;;;;;5051421;28;20205;-60
2023/06/30 02:12:14;;;;;;;3.83;1.95;;;;;;;;;;5051769;28;20052;-60
2023/06/30 02:14:40;;;;;;;2.72;2.00;;;;;;;;;;5051720;28;20497;-60
2023/06/30 02:17:08;;;;;;;3.05;2.15;;;;;;;;;;5052147;28;20123;-60
2023/06/30 02:19:35;;;;;;;3.75;2.03;;;;;;;;;;5051666;28;20136;-60
2023/06/30 02:22:01;;;;;;;3.28;1.80;;;;;;;;;;5051767;28;20119;-60
2023/06/30 02:24:28;;;;;;;3.83;2.05;;;;;;;;;;5051808;28;20041;-60
2023/06/30 02:26:56;;;;;;;4.38;2.22;;;;;;;;;;5051740;28;20052;-60
2023/06/30 02:29:23;;;;;;;5.18;2.20;;;;;;;;;;5051586;28;20045;-60
2023/06/30 02:31:49;;;;;;;6.28;2.22;;;;;;;;;;5051482;28;20053;-60
2023/06/30 02:34:16;;;;;;;3.83;2.42;;;;;;;;;;5051257;28;20063;-60
2023/06/30 02:36:42;;;;;;;3.33;2.03;;;;;;;;;;5051660;28;20045;-60
2023/06/30 02:39:08;;;;;;;3.28;1.80;;;;;;;;;;5051571;28;20060;-61
2023/06/30 02:41:36;;;;;;;4.68;2.38;;;;;;;;;;5051405;28;20160;-61
2023/06/30 02:44:02;;;;;;;3.63;2.22;;;;;;;;;;5051610;28;20542;-60
2023/06/30 02:46:29;;;;;;;3.80;2.45;;;;;;;;;;5051205;28;20052;-60
2023/06/30 02:48:55;;;;;;;3.42;2.40;;;;;;;;;;5045552;28;20053;-60
2023/06/30 02:51:22;;;;;;;4.40;2.33;;;;;;;;;;5043458;28;20060;-60
2023/06/30 02:53:48;;;;;;;4.88;2.20;;;;;;;;;;5051160;28;20076;-60
2023/06/30 02:56:15;;;;;;;3.75;1.95;;;;;;;;;;5051596;28;20464;-61
2023/06/30 02:58:41;;;;;;;3.17;2.17;;;;;;;;;;5051410;28;20048;-60
2023/06/30 03:01:08;;;;;;;4.07;2.30;;;;;;;;;;5051082;28;20155;-60
2023/06/30 03:03:35;;;;;;;4.17;2.03;;;;;;;;;;5051342;28;20048;-60
2023/06/30 03:06:02;;;;;;;3.67;2.20;;;;;;;;;;5051102;28;20127;-60
2023/06/30 03:08:30;;;;;;;5.00;2.30;;;;;;;;;;5051058;28;20504;-61
2023/06/30 03:10:56;;;;;;;3.35;2.20;;;;;;;;;;5044544;28;20431;-60
2023/06/30 03:13:23;;;;;;;6.35;2.30;;;;;;;;;;5051080;28;20049;-60
2023/06/30 03:15:49;;;;;;;4.40;2.58;;;;;;;;;;5050983;28;20058;-60
2023/06/30 03:18:15;;;;;;;5.05;1.98;;;;;;;;;;5051232;28;20053;-60
2023/06/30 03:20:42;;;;;;;3.30;2.03;;;;;;;;;;5051044;28;20071;-60
2023/06/30 03:23:08;;;;;;;5.65;2.13;;;;;;;;;;5054302;28;20053;-61
2023/06/30 03:25:35;;;;;;;3.85;1.95;;;;;;;;;;5054868;28;20068;-60
2023/06/30 03:28:01;;;;;;;3.00;1.73;;;;;;;;;;5054687;28;20049;-60
2023/06/30 03:30:28;;;;;;;5.82;2.05;;;;;;;;;;5054914;28;20057;-60
2023/06/30 03:32:54;;;;;;;4.30;2.08;;;;;;;;;;5054892;28;20064;-60
2023/06/30 03:35:21;;;;;;;5.05;2.08;;;;;;;;;;5054945;28;20534;-60
2023/06/30 03:37:47;;;;;;;2.92;2.00;;;;;;;;;;5054821;28;20052;-60
2023/06/30 03:40:14;;;;;;;3.25;1.95;;;;;;;;;;5054514;28;20123;-61
2023/06/30 03:42:40;;;;;;;3.63;1.73;;;;;;;;;;5054722;28;20044;-60
2023/06/30 03:45:07;;;;;;;2.38;1.98;;;;;;;;;;5054501;28;20202;-60
2023/06/30 03:47:33;;;;;;;3.27;1.90;;;;;;;;;;5054746;28;20049;-60
2023/06/30 03:50:00;;;;;;;2.40;1.67;;;;;;;;;;5054566;28;20389;-60
2023/06/30 03:52:27;;;;;;;5.05;1.98;;;;;;;;;;5054431;28;20052;-60
2023/06/30 03:54:53;;;;;;;2.90;1.73;;;;;;;;;;5054250;28;20100;-60
2023/06/30 03:57:20;;;;;;;2.97;1.90;;;;;;;;;;5054269;28;20053;-60
2023/06/30 03:59:46;;;;;;;4.75;2.00;;;;;;;;;;5054007;28;20048;-60
2023/06/30 04:02:13;;;;;;;3.40;1.92;;;;;;;;;;5054379;28;20060;-60
2023/06/30 04:04:39;;;;;;;2.22;1.70;;;;;;;;;;5053999;28;20515;-60
2023/06/30 04:07:06;;;;;;;8.35;1.70;;;;;;;;;;5054123;28;20128;-60
2023/06/30 04:09:32;;;;;;;5.18;2.00;;;;;;;;;;5054018;28;20051;-61
2023/06/30 04:11:59;;;;;;;3.80;1.80;;;;;;;;;;5053807;28;20045;-60
2023/06/30 04:14:25;;;;;;;3.92;1.75;;;;;;;;;;5054182;28;20052;-60
2023/06/30 04:16:52;;;;;;;4.18;1.80;;;;;;;;;;5054035;28;20040;-60
2023/06/30 04:19:19;;;;;;;5.00;1.95;;;;;;;;;;5053932;28;20045;-60
2023/06/30 04:21:46;;;;;;;4.53;2.15;;;;;;;;;;5053557;28;20122;-60
2023/06/30 04:24:13;;;;;;;10.40;1.98;;;;;;;;;;5053811;28;20056;-60
2023/06/30 04:26:40;;;;;;;3.08;1.50;;;;;;;;;;5053652;28;20123;-60
2023/06/30 04:29:06;;;;;;;4.45;2.03;;;;;;;;;;5053954;28;20045;-60
2023/06/30 04:31:32;;;;;;;1.73;1.30;;;;;;;;;;5053552;28;20053;-60
2023/06/30 04:33:59;;;;;;;4.22;1.25;;;;;;;;;;5053557;28;20072;-60
2023/06/30 04:36:29;;;;;;;5.88;1.75;;;;;;;;;;5053760;28;20061;-60
2023/06/30 04:38:55;;;;;;;5.10;1.65;;;;;;;;;;5053427;28;20084;-60
2023/06/30 04:41:22;;;;;;;4.97;1.35;;;;;;;;;;5053599;28;20049;-60
2023/06/30 04:43:48;;;;;;;5.55;1.25;;;;;;;;;;5053351;28;20049;-61
2023/06/30 04:46:15;;;;;;;4.07;1.30;;;;;;;;;;5053407;28;20048;-60
2023/06/30 04:48:42;;;;;;;5.00;1.63;;;;;;;;;;5053318;28;20052;-61
2023/06/30 04:51:08;;;;;;;4.20;1.73;;;;;;;;;;5053235;28;20119;-60
2023/06/30 04:53:35;;;;;;;6.22;1.48;;;;;;;;;;5053174;28;20063;-60
2023/06/30 04:56:02;;;;;;;4.68;1.20;;;;;;;;;;5053555;28;20052;-60
2023/06/30 04:58:28;;;;;;;9.05;1.70;;;;;;;;;;5053411;28;20060;-60
2023/06/30 05:00:56;;;;;;;3.92;1.73;;;;;;;;;;5052878;28;20491;-60
2023/06/30 05:03:23;;;;;;;6.65;1.60;;;;;;;;;;5047606;28;20130;-60
2023/06/30 05:05:49;;;;;;;6.00;1.52;;;;;;;;;;5053056;28;20528;-60
2023/06/30 05:08:16;;;;;;;5.93;1.40;;;;;;;;;;5052714;28;20045;-60
2023/06/30 05:10:42;;;;;;;7.82;1.63;;;;;;;;;;5053240;28;20052;-60
2023/06/30 05:13:09;;;;;;;3.95;1.45;;;;;;;;;;5052805;28;20541;-60
2023/06/30 05:15:35;;;;;;;7.38;1.58;;;;;;;;;;5052733;28;20500;-60
2023/06/30 05:18:02;;;;;;;5.30;1.40;;;;;;;;;;5052592;28;20103;-60
2023/06/30 05:20:29;;;;;;;4.72;1.30;;;;;;;;;;5052625;28;20504;-60
2023/06/30 05:22:55;;;;;;;4.95;1.42;;;;;;;;;;5052807;28;20049;-61
2023/06/30 05:25:21;;;;;;;5.93;1.60;;;;;;;;;;5052510;28;20052;-60
2023/06/30 05:27:48;;;;;;;4.13;1.60;;;;;;;;;;5053175;28;20045;-60
2023/06/30 05:30:14;;;;;;;5.88;1.75;;;;;;;;;;5052685;28;20057;-60
2023/06/30 05:32:41;;;;;;;6.50;1.63;;;;;;;;;;5052524;28;20056;-60
2023/06/30 05:35:07;;;;;;;5.85;1.50;;;;;;;;;;5052667;28;20055;-60
2023/06/30 05:37:34;;;;;;;5.10;1.27;;;;;;;;;;5052313;28;20047;-60
2023/06/30 05:40:00;;;;;;;7.03;1.42;;;;;;;;;;5052433;28;20049;-60
2023/06/30 05:42:27;;;;;;;6.20;1.40;;;;;;;;;;5052540;28;20102;-60
2023/06/30 05:44:53;;;;;;;6.50;1.77;;;;;;;;;;5051699;28;20056;-60
2023/06/30 05:47:20;;;;;;;4.03;1.30;;;;;;;;;;5051175;28;20076;-60
2023/06/30 05:49:46;;;;;;;3.60;1.20;;;;;;;;;;5052124;28;20063;-60
2023/06/30 05:52:13;;;;;;;6.07;1.50;;;;;;;;;;5052454;28;20358;-60
2023/06/30 05:54:39;;;;;;;6.30;1.65;;;;;;;;;;5052372;28;20107;-60
2023/06/30 05:57:05;;;;;;;4.13;1.50;;;;;;;;;;5052307;28;20053;-60
2023/06/30 05:59:32;;;;;;;4.82;1.20;;;;;;;;;;5052147;28;20537;-60
2023/06/30 06:01:58;;;;;;;6.85;1.40;;;;;;;;;;5051941;28;20082;-60
2023/06/30 06:04:25;;;;;;;3.97;1.58;;;;;;;;;;5051819;28;20622;-60
2023/06/30 06:06:52;;;;;;;4.18;1.17;;;;;;;;;;5052195;28;20045;-60
2023/06/30 06:09:18;;;;;;;4.50;1.48;;;;;;;;;;5051660;28;20049;-60
2023/06/30 06:11:45;;;;;;;7.82;2.10;;;;;;;;;;5037351;28;20124;-60
2023/06/30 06:14:11;;;;;;;5.30;1.40;;;;;;;;;;5051905;28;20451;-60
2023/06/30 06:16:37;;;;;;;3.90;1.45;;;;;;;;;;5051633;28;20052;-59
2023/06/30 06:19:04;;;;;;;5.00;1.38;;;;;;;;;;5051534;28;20057;-60
2023/06/30 06:21:30;;;;;;;3.88;1.58;;;;;;;;;;5051718;28;20051;-60
2023/06/30 06:23:57;;;;;;;4.90;1.83;;;;;;;;;;5031876;28;20046;-60
2023/06/30 06:26:23;;;;;;;4.55;1.35;;;;;;;;;;5031810;28;20045;-60
2023/06/30 06:28:50;;;;;;;4.22;1.50;;;;;;;;;;5031781;28;20045;-60
2023/06/30 06:31:16;;;;;;;5.25;1.52;;;;;;;;;;5031737;28;20053;-59
2023/06/30 06:33:43;;;;;;;5.40;1.35;;;;;;;;;;5031664;28;20500;-60
2023/06/30 06:36:09;;;;;;;4.57;1.48;;;;;;;;;;5040733;28;20045;-59
2023/06/30 06:38:37;;;;;;;6.93;1.63;;;;;;;;;;5051514;28;20052;-60
2023/06/30 06:41:03;;;;;;;5.53;1.42;;;;;;;;;;5035736;28;20091;-59
2023/06/30 06:43:30;;;;;;;6.80;1.45;;;;;;;;;;5051659;28;20075;-61
2023/06/30 06:45:56;;;;;;;4.63;1.50;;;;;;;;;;5051422;28;20102;-62
2023/06/30 06:48:26;;;;;;;4.80;1.70;;;;;;;;;;5051540;28;20048;-60
2023/06/30 06:50:53;;;;;;;6.25;1.75;;;;;;;;;;5051009;28;20128;-60
2023/06/30 06:53:21;;;;;;;6.03;1.42;;;;;;;;;;5036864;28;20103;-59
2023/06/30 06:55:48;;;;;;;7.75;1.95;;;;;;;;;;5051247;28;20056;-59
2023/06/30 06:58:15;;;;;;;5.70;1.58;;;;;;;;;;5054489;28;20106;-59
2023/06/30 07:00:42;;;;;;;6.10;1.75;;;;;;;;;;5055015;28;20503;-59
2023/06/30 07:03:09;;;;;;;;;;;;;;;;;;5055963;28;20056;-59
2023/06/30 07:05:35;;;;;;;4.87;1.90;;;;;;;;;;5055337;28;19971;-59
2023/06/30 07:08:04;;;;;;;5.95;1.73;;;;;;;;;;5055386;28;20045;-59
2023/06/30 07:10:31;;;;;;;5.43;1.80;;;;;;;;;;5036211;28;20049;-60
2023/06/30 07:12:57;;;;;;;7.78;2.00;;;;;;;;;;5035121;28;20497;-59
2023/06/30 07:15:25;;;;;;;5.35;1.73;;;;;;;;;;5035328;28;20045;-59
2023/06/30 07:17:51;;;;;;;6.95;2.00;;;;;;;;;;5035220;28;20408;-59
2023/06/30 07:20:18;;;;;;;6.67;1.90;;;;;;;;;;5052360;28;20489;-60
2023/06/30 07:22:44;;;;;;;4.47;1.70;;;;;;;;;;5055106;28;20106;-59
2023/06/30 07:25:11;;;;;;;5.30;1.80;;;;;;;;;;5055301;28;20052;-59
2023/06/30 07:27:38;;;;;;;7.40;1.70;;;;;;;;;;5054918;28;20106;-59
2023/06/30 07:30:05;;;;;;;6.90;1.63;;;;;;;;;;5055153;28;20049;-59
2023/06/30 07:32:32;;;;;;;10.10;1.73;;;;;;;;;;5037155;28;20452;-59
2023/06/30 07:34:59;;;;;;;;;;;;;;;;;;5035329;28;20130;-59
2023/06/30 07:37:25;;;;;;;5.72;1.60;;;;;;;;;;5034844;28;19925;-59
2023/06/30 07:39:51;;;;;;;6.78;1.80;;;;;;;;;;5044841;28;20507;-59
2023/06/30 07:42:18;;;;;;;7.53;1.90;;;;;;;;;;5042293;28;20048;-60
2023/06/30 07:44:45;;;;;;;5.18;1.92;;;;;;;;;;5052297;28;20294;-60
2023/06/30 07:47:11;;;;;;;7.65;1.85;;;;;;;;;;5046181;28;20099;-59
2023/06/30 07:49:39;;;;;;;5.05;1.70;;;;;;;;;;5048928;28;20432;-60
2023/06/30 07:52:06;;;;;;;6.10;1.63;;;;;;;;;;5054504;28;20056;-59
2023/06/30 07:54:32;;;;;;;8.53;2.33;;;;;;;;;;5036535;28;20049;-60
2023/06/30 07:56:59;;;;;;;7.78;2.10;;;;;;;;;;5050524;28;20489;-60
2023/06/30 07:59:25;;;;;;;7.28;2.15;;;;;;;;;;5042789;28;20053;-59
2023/06/30 08:01:52;;;;;;;7.47;1.65;;;;;;;;;;5033878;28;20051;-59
2023/06/30 08:04:18;;;;;;;5.63;1.92;;;;;;;;;;5032652;28;20045;-59
2023/06/30 08:06:45;;;;;;;7.20;1.90;;;;;;;;;;5041926;28;20059;-59
2023/06/30 08:09:11;;;;;;;6.88;2.13;;;;;;;;;;5047467;28;20091;-60
2023/06/30 08:11:38;;;;;;;7.65;2.10;;;;;;;;;;5046775;28;20053;-59
2023/06/30 08:14:06;;;;;;;8.35;2.50;;;;;;;;;;5033121;28;20486;-59
2023/06/30 08:16:32;;;;;;;7.57;2.03;;;;;;;;;;5033875;28;20045;-59
2023/06/30 08:18:59;;;;;;;9.67;2.47;;;;;;;;;;5040221;28;20053;-59
2023/06/30 08:21:26;;;;;;;9.00;2.40;;;;;;;;;;5036924;28;20053;-59
2023/06/30 08:23:52;;;;;;;10.02;2.67;;;;;;;;;;5033722;28;20400;-59
2023/06/30 08:26:19;;;;;;;6.70;2.60;;;;;;;;;;5031320;28;20046;-59
2023/06/30 08:28:45;;;;;;;8.90;2.28;;;;;;;;;;5033779;28;20053;-59
2023/06/30 08:31:12;;;;;;;8.18;2.22;;;;;;;;;;5036726;28;20060;-59
2023/06/30 08:33:39;;;;;;;7.40;2.53;;;;;;;;;;5039465;28;20084;-59
2023/06/30 08:36:06;;;;;;;;;;;;;;;;;;5053533;28;20048;-59
2023/06/30 08:38:33;;;;;;;7.87;2.30;;;;;;;;;;5053115;28;19931;-59
2023/06/30 08:41:00;;;;;;;5.00;2.10;;;;;;;;;;5053152;28;20037;-59
2023/06/30 08:43:27;;;;;;;7.85;2.60;;;;;;;;;;5053197;28;20053;-59
2023/06/30 08:45:54;;;;;;;9.23;3.07;;;;;;;;;;5052872;28;20056;-59
2023/06/30 08:48:20;;;;;;;9.48;3.10;;;;;;;;;;5045996;28;20290;-60
2023/06/30 08:50:47;;;;;;;9.63;3.27;;;;;;;;;;5047404;28;20484;-60
2023/06/30 08:53:17;;;;;;;8.88;2.70;;;;;;;;;;5052835;28;20794;-60
2023/06/30 08:55:44;;;;;;;10.38;2.85;;;;;;;;;;5052930;28;20390;-60
2023/06/30 08:58:10;;;;;;;;;;;;;;;;;;5053376;28;20044;-60
2023/06/30 09:00:46;;;;;;;7.07;2.45;;;;;;;;;;5052585;28;19975;-59
2023/06/30 09:03:13;;;;;;;6.23;2.20;;;;;;;;;;5052541;28;20477;-59
2023/06/30 09:05:40;;;;;;;7.50;2.70;;;;;;;;;;5052579;28;20059;-59
2023/06/30 09:08:28;;;;;;;6.80;2.40;;;;;;;;;;5052578;28;20281;-60
2023/06/30 09:10:55;;;;;;;8.77;2.97;;;;;;;;;;5052599;28;20053;-59
2023/06/30 09:13:23;;;;;;;6.25;2.47;;;;;;;;;;5052707;28;20040;-59
2023/06/30 09:15:50;;;;;;;5.45;2.20;;;;;;;;;;5052379;28;20048;-60
2023/06/30 09:18:17;;;;;;;6.90;2.47;;;;;;;;;;5052084;28;20515;-60
2023/06/30 09:20:43;;;;;;;6.03;2.23;;;;;;;;;;5051564;28;20122;-60
2023/06/30 09:23:10;;;;;;;5.10;2.15;;;;;;;;;;5052451;28;20049;-60
2023/06/30 09:25:39;;;;;;;8.68;2.28;;;;;;;;;;5050355;28;20063;-60
2023/06/30 09:28:10;;;;;;;6.97;2.45;;;;;;;;;;5052278;28;20045;-59
2023/06/30 09:30:39;;;;;;;5.28;2.17;;;;;;;;;;5051942;28;20045;-60
2023/06/30 09:33:06;;;;;;;5.75;1.70;;;;;;;;;;5052235;28;20045;-60
2023/06/30 09:35:39;;;;;;;4.97;2.15;;;;;;;;;;5052240;28;20580;-59
2023/06/30 09:38:13;;;;;;;5.68;1.73;;;;;;;;;;5051956;28;20574;-59
2023/06/30 09:40:43;;;;;;;6.22;2.40;;;;;;;;;;5052098;28;20045;-59
2023/06/30 09:43:20;;;;;;;4.55;1.55;;;;;;;;;;5051974;28;20048;-59
2023/06/30 09:45:47;;;;;;;5.93;2.40;;;;;;;;;;5051745;28;20120;-60
2023/06/30 09:48:15;;;;;;;4.65;2.10;;;;;;;;;;5045861;28;20052;-60
2023/06/30 09:50:42;;;;;;;5.00;1.87;;;;;;;;;;5047283;28;20049;-59
2023/06/30 09:53:09;;;;;;;5.68;2.10;;;;;;;;;;5051651;28;20052;-59
2023/06/30 09:55:45;;;;;;;6.70;1.80;;;;;;;;;;5051860;28;20053;-60
2023/06/30 09:58:11;;;;;;;4.68;2.03;;;;;;;;;;5051764;28;20413;-60
2023/06/30 10:00:39;;;;;;;2.38;1.70;;;;;;;;;;5051988;28;20100;-60
2023/06/30 10:03:08;;;;;;;5.18;2.03;;;;;;;;;;5051677;28;20052;-60
2023/06/30 10:05:38;;;;;;;5.00;2.10;;;;;;;;;;5051518;28;20098;-59
2023/06/30 10:08:05;;;;;;;5.30;2.00;;;;;;;;;;5051204;28;20485;-60
2023/06/30 10:10:31;;;;;;;3.97;1.85;;;;;;;;;;5051962;28;20386;-59
2023/06/30 10:12:58;;;;;;;8.30;2.80;;;;;;;;;;5051609;28;20450;-60
2023/06/30 10:15:26;;;;;;;4.75;2.35;;;;;;;;;;5051616;28;20056;-60
2023/06/30 10:17:53;;;;;;;5.82;1.95;;;;;;;;;;5051520;28;20136;-60
2023/06/30 10:20:20;;;;;;;3.38;1.42;;;;;;;;;;5051236;28;20049;-59
2023/06/30 10:23:00;;;;;;;4.25;1.45;;;;;;;;;;5051498;28;20049;-59
2023/06/30 10:25:28;;;;;;;2.35;1.60;;;;;;;;;;5049136;28;20047;-59
2023/06/30 10:27:54;;;;;;;5.07;1.88;;;;;;;;;;5051582;28;20444;-59
2023/06/30 10:30:21;;;;;;;3.65;1.35;;;;;;;;;;5050913;28;20094;-59
2023/06/30 10:32:47;;;;;;;2.17;1.20;;;;;;;;;;5039597;28;20049;-60
2023/06/30 10:35:15;;;;;;;4.47;1.35;;;;;;;;;;5032289;28;20053;-59
2023/06/30 10:37:41;;;;;;;;;;;;;;;;;;5051752;28;20049;-59
2023/06/30 10:40:08;;;;;;;2.20;1.13;;;;;;;;;;5051314;28;20364;-60
2023/06/30 10:42:38;;;;;;;3.97;1.20;;;;;;;;;;5051171;28;20099;-60
2023/06/30 10:45:04;;;;;;;3.45;1.40;;;;;;;;;;5050715;28;20048;-59
2023/06/30 10:47:37;;;;;;;2.38;1.20;;;;;;;;;;5051145;28;20037;-60
2023/06/30 10:50:13;;;;;;;3.10;1.35;;;;;;;;;;5044850;28;20063;-59
2023/06/30 10:52:47;;;;;;;3.47;1.50;;;;;;;;;;5050879;28;20799;-59
2023/06/30 10:55:14;;;;;;;2.75;2.03;;;;;;;;;;5051179;28;20045;-60
2023/06/30 10:57:40;;;;;;;3.97;1.63;;;;;;;;;;5051170;28;20056;-60
2023/06/30 11:00:11;;;;;;;2.97;1.40;;;;;;;;;;5050808;28;20053;-60
2023/06/30 11:02:45;;;;;;;2.72;1.48;;;;;;;;;;5050717;28;20049;-60
2023/06/30 11:05:23;;;;;;;2.90;1.58;;;;;;;;;;5050872;28;20079;-59
2023/06/30 11:07:52;;;;;;;4.13;1.40;;;;;;;;;;5050794;28;20049;-60
2023/06/30 11:10:24;;;;;;;2.42;1.17;;;;;;;;;;5050716;28;20527;-60
2023/06/30 11:12:52;;;;;;;3.00;1.30;;;;;;;;;;5050808;28;20053;-60
2023/06/30 11:15:25;;;;;;;2.13;1.40;;;;;;;;;;5050862;28;20520;-59
2023/06/30 11:17:51;;;;;;;2.15;1.58;;;;;;;;;;5050756;28;20049;-60
2023/06/30 11:20:18;;;;;;;2.30;1.35;;;;;;;;;;5050597;28;20083;-59
2023/06/30 11:23:05;;;;;;;4.90;1.75;;;;;;;;;;5050625;28;20053;-60
2023/06/30 11:25:32;;;;;;;3.53;1.85;;;;;;;;;;5048739;28;20444;-59
2023/06/30 11:28:01;;;;;;;4.00;2.10;;;;;;;;;;5050833;28;20063;-60
2023/06/30 11:30:31;;;;;;;5.72;2.08;;;;;;;;;;5038630;28;20080;-60
2023/06/30 11:32:58;;;;;;;3.45;1.63;;;;;;;;;;5035561;28;20053;-60
2023/06/30 11:35:26;;;;;;;3.65;1.90;;;;;;;;;;5036224;28;20479;-60
2023/06/30 11:37:52;;;;;;;;;;;;;;;;;;5050843;28;20057;-60
2023/06/30 11:40:19;;;;;;;7.78;1.90;;;;;;;;;;5050386;28;20373;-60
2023/06/30 11:42:46;;;;;;;5.53;1.73;;;;;;;;;;5051052;28;20049;-60
2023/06/30 11:45:19;;;;;;;4.32;1.98;;;;;;;;;;5051060;28;20053;-60
2023/06/30 11:47:48;;;;;;;3.38;2.20;;;;;;;;;;5037152;28;20120;-60
2023/06/30 11:50:15;;;;;;;3.63;1.60;;;;;;;;;;5044585;28;20148;-60
2023/06/30 11:52:48;;;;;;;3.78;1.65;;;;;;;;;;5053881;28;20136;-60
2023/06/30 11:55:14;;;;;;;3.95;1.40;;;;;;;;;;5054199;28;20444;-60
2023/06/30 11:57:43;;;;;;;2.00;1.50;;;;;;;;;;5053830;28;20048;-60
2023/06/30 12:00:11;;;;;;;3.30;1.65;;;;;;;;;;5053851;28;20061;-59
2023/06/30 12:02:41;;;;;;;5.20;1.70;;;;;;;;;;5052263;28;20076;-60
2023/06/30 12:05:11;;;;;;;2.72;1.50;;;;;;;;;;5054007;28;20051;-60
2023/06/30 12:07:38;;;;;;;5.38;2.10;;;;;;;;;;5053922;28;20087;-60
2023/06/30 12:10:05;;;;;;;3.30;1.77;;;;;;;;;;5053870;28;20064;-60
2023/06/30 12:12:32;;;;;;;3.15;1.70;;;;;;;;;;5053926;28;20160;-60
2023/06/30 12:15:02;;;;;;;4.00;1.70;;;;;;;;;;5053480;28;20051;-60
2023/06/30 12:17:29;;;;;;;2.50;1.60;;;;;;;;;;5039224;28;20056;-60
2023/06/30 12:19:55;;;;;;;4.13;1.53;;;;;;;;;;5053360;28;20135;-60
2023/06/30 12:22:29;;;;;;;5.40;2.00;;;;;;;;;;5053324;28;20045;-60
2023/06/30 12:24:56;;;;;;;3.88;1.70;;;;;;;;;;5053425;28;20056;-60
2023/06/30 12:27:25;;;;;;;;;;;;;;;;;;5051960;28;20045;-60
2023/06/30 12:29:51;;;;;;;4.25;1.40;;;;;;;;;;5053206;28;19928;-60
2023/06/30 12:32:18;;;;;;;4.63;1.80;;;;;;;;;;5053567;28;20052;-60
2023/06/30 12:34:45;;;;;;;2.90;1.60;;;;;;;;;;5053294;28;20048;-60
2023/06/30 12:37:14;;;;;;;3.00;1.67;;;;;;;;;;5053037;28;20053;-60
2023/06/30 12:39:41;;;;;;;3.50;1.25;;;;;;;;;;5053150;28;20460;-60
2023/06/30 12:42:07;;;;;;;2.60;1.50;;;;;;;;;;5053266;28;20370;-60
2023/06/30 12:44:34;;;;;;;3.23;1.40;;;;;;;;;;5052760;28;20063;-60
2023/06/30 12:47:01;;;;;;;1.83;1.37;;;;;;;;;;5052963;28;20094;-60
2023/06/30 12:49:28;;;;;;;2.63;1.40;;;;;;;;;;5042395;28;20048;-60
2023/06/30 12:51:55;;;;;;;3.03;1.50;;;;;;;;;;5052991;28;20512;-60
2023/06/30 12:54:22;;;;;;;2.72;1.45;;;;;;;;;;5052979;28;20041;-60
2023/06/30 12:56:48;;;;;;;2.17;1.30;;;;;;;;;;5052904;28;20098;-60
2023/06/30 12:59:15;;;;;;;4.43;1.00;;;;;;;;;;5052938;28;20044;-60
2023/06/30 13:01:42;;;;;;;2.38;1.13;;;;;;;;;;5052944;28;20052;-60
2023/06/30 13:04:08;;;;;;;2.45;0.90;;;;;;;;;;5052715;28;20102;-60
2023/06/30 13:06:35;;;;;;;1.70;1.00;;;;;;;;;;5052913;28;20102;-60
2023/06/30 13:09:01;;;;;;;3.80;1.13;;;;;;;;;;5052882;28;20040;-60
2023/06/30 13:11:28;;;;;;;3.57;1.40;;;;;;;;;;5052713;28;20041;-60
2023/06/30 13:13:54;;;;;;;3.23;1.27;;;;;;;;;;5052738;28;20289;-60
2023/06/30 13:16:20;;;;;;;3.50;1.30;;;;;;;;;;5052603;28;20455;-60
2023/06/30 13:18:47;;;;;;;2.88;1.38;;;;;;;;;;5052342;28;20084;-60
2023/06/30 13:21:13;;;;;;;3.72;1.40;;;;;;;;;;5052595;28;20110;-60
2023/06/30 13:23:40;;;;;;;1.50;1.10;;;;;;;;;;5052093;28;20044;-60
2023/06/30 13:26:06;;;;;;;1.92;1.17;;;;;;;;;;5050220;28;20049;-60
2023/06/30 13:28:33;;;;;;;2.38;1.45;;;;;;;;;;5052134;28;20497;-60
2023/06/30 13:31:02;;;;;;;1.73;1.63;;;;;;;;;;5052407;28;20059;-60
2023/06/30 13:33:28;;;;;;;2.00;1.52;;;;;;;;;;5044181;28;20049;-60
2023/06/30 13:35:55;;;;;;;2.92;1.30;;;;;;;;;;5044893;28;20106;-60
2023/06/30 13:38:21;;;;;;;2.25;1.38;;;;;;;;;;5038616;28;20500;-59
2023/06/30 13:40:48;;;;;;;1.50;1.10;;;;;;;;;;5051885;28;20508;-60
2023/06/30 13:43:14;;;;;;;1.38;1.20;;;;;;;;;;5051753;28;20049;-60
2023/06/30 13:45:40;;;;;;;2.75;1.02;;;;;;;;;;5051933;28;20496;-60
2023/06/30 13:48:07;;;;;;;1.98;1.38;;;;;;;;;;5050132;28;20055;-59
2023/06/30 13:50:34;;;;;;;1.83;0.80;;;;;;;;;;5051754;28;20053;-60
2023/06/30 13:53:00;;;;;;;2.15;0.60;;;;;;;;;;5051908;28;20052;-60
2023/06/30 13:55:28;;;;;;;2.10;0.85;;;;;;;;;;5051596;28;20106;-60
2023/06/30 13:57:58;;;;;;;3.67;1.13;;;;;;;;;;5051671;28;20053;-60
2023/06/30 14:00:25;;;;;;;2.88;0.80;;;;;;;;;;5052036;28;20045;-60
2023/06/30 14:02:52;;;;;;;2.53;0.73;;;;;;;;;;5051785;28;20048;-60
2023/06/30 14:05:18;;;;;;;3.42;0.80;;;;;;;;;;5036900;28;20054;-60
2023/06/30 14:07:45;;;;;;;2.57;0.87;;;;;;;;;;5035431;28;20076;-60
2023/06/30 14:10:11;;;;;;;3.63;1.00;;;;;;;;;;5031423;28;20045;-62
2023/06/30 14:12:37;;;;;;;3.05;0.80;;;;;;;;;;5031767;28;20505;-60
2023/06/30 14:15:04;;;;;;;3.28;0.95;;;;;;;;;;5039930;28;20107;-60
2023/06/30 14:17:31;;;;;;;3.65;1.05;;;;;;;;;;5051301;28;20049;-61
2023/06/30 14:19:57;;;;;;;4.28;0.93;;;;;;;;;;5051725;28;20489;-61
2023/06/30 14:22:24;;;;;;;2.58;0.60;;;;;;;;;;5031734;28;20053;-60
2023/06/30 14:24:50;;;;;;;3.40;0.60;;;;;;;;;;5030442;28;20061;-61
2023/06/30 14:27:16;;;;;;;1.70;0.38;;;;;;;;;;5031670;28;20544;-60
2023/06/30 14:29:43;;;;;;;0.98;0.45;;;;;;;;;;5031324;28;20045;-61
2023/06/30 14:32:10;;;;;;;1.00;0.33;;;;;;;;;;5033983;28;20053;-61
2023/06/30 14:34:36;;;;;;;0.65;0.30;;;;;;;;;;5051364;28;20351;-60
2023/06/30 14:37:03;;;;;;;0.88;0.20;;;;;;;;;;5030318;28;20100;-61
2023/06/30 14:39:29;;;;;;;0.60;0.30;;;;;;;;;;5029274;28;20114;-60
2023/06/30 14:41:56;;;;;;;1.97;0.40;;;;;;;;;;5049517;28;20134;-61
2023/06/30 14:44:28;;;;;;;0.57;0.30;;;;;;;;;;5049544;28;20139;-61
2023/06/30 14:46:54;;;;;;;0.27;0.17;;;;;;;;;;5049711;28;20077;-60